createdAt,value
2017-11-01T00:00:25.849Z,0
2017-11-01T00:01:27.683Z,0
2017-11-01T00:02:29.118Z,0
2017-11-01T00:03:30.660Z,0
2017-11-01T00:04:32.113Z,0
2017-11-01T00:05:33.590Z,0
2017-11-01T00:06:35.074Z,0
2017-11-01T00:07:36.569Z,0
2017-11-01T00:08:38.068Z,0
2017-11-01T00:09:39.616Z,0
2017-11-01T00:10:41.088Z,0
2017-11-01T00:11:42.559Z,0
2017-11-01T00:12:44.046Z,0
2017-11-01T00:13:45.582Z,0
2017-11-01T00:14:47.082Z,0
2017-11-01T00:15:48.623Z,0
2017-11-01T00:16:50.089Z,0
2017-11-01T00:17:51.610Z,0
2017-11-01T00:18:53.107Z,0
2017-11-01T00:19:55.009Z,0
2017-11-01T00:20:56.486Z,0
2017-11-01T00:21:58.025Z,0
2017-11-01T00:22:59.510Z,0
2017-11-01T00:24:01.001Z,0
2017-11-01T00:25:02.550Z,0
2017-11-01T00:26:04.023Z,0
2017-11-01T00:27:05.545Z,0
2017-11-01T00:28:07.050Z,0
2017-11-01T00:29:08.498Z,0
2017-11-01T00:30:10.023Z,0
2017-11-01T00:31:11.539Z,0
2017-11-01T00:32:13.045Z,0
2017-11-01T00:33:14.519Z,0
2017-11-01T00:34:16.013Z,0
2017-11-01T00:35:18.516Z,0
2017-11-01T00:36:19.999Z,0
2017-11-01T00:37:21.503Z,0
2017-11-01T00:38:22.988Z,0
2017-11-01T00:39:24.502Z,0
2017-11-01T00:40:26.007Z,0
2017-11-01T00:41:27.574Z,0
2017-11-01T00:42:29.052Z,0
2017-11-01T00:43:30.567Z,0
2017-11-01T00:44:32.070Z,0
2017-11-01T00:45:33.567Z,0
2017-11-01T00:46:35.052Z,0
2017-11-01T00:47:36.637Z,0
2017-11-01T00:48:38.112Z,0
2017-11-01T00:49:39.599Z,0
2017-11-01T00:50:41.073Z,0
2017-11-01T00:51:42.548Z,0
2017-11-01T00:52:44.068Z,0
2017-11-01T00:53:45.606Z,0
2017-11-01T00:54:47.099Z,0
2017-11-01T00:55:48.601Z,0
2017-11-01T00:56:50.142Z,0
2017-11-01T00:57:51.577Z,0
2017-11-01T00:58:53.116Z,0
2017-11-01T00:59:54.570Z,0
2017-11-01T01:00:56.072Z,0
2017-11-01T01:01:57.562Z,0
2017-11-01T01:02:59.025Z,0
2017-11-01T01:04:00.527Z,0
2017-11-01T01:05:02.218Z,0
2017-11-01T01:06:03.755Z,0
2017-11-01T01:07:05.220Z,0
2017-11-01T01:08:07.560Z,0
2017-11-01T01:09:09.021Z,0
2017-11-01T01:10:10.482Z,0
2017-11-01T01:11:11.931Z,0
2017-11-01T01:12:13.394Z,0
2017-11-01T01:13:14.924Z,0
2017-11-01T01:14:16.434Z,0
2017-11-01T01:15:17.905Z,0
2017-11-01T01:16:19.450Z,0
2017-11-01T01:17:20.923Z,0
2017-11-01T01:18:22.418Z,0
2017-11-01T01:19:23.943Z,0
2017-11-01T01:20:25.417Z,0
2017-11-01T01:21:26.928Z,0
2017-11-01T01:22:28.393Z,0
2017-11-01T01:23:29.861Z,0
2017-11-01T01:24:31.407Z,0
2017-11-01T01:25:32.914Z,0
2017-11-01T01:26:34.392Z,0
2017-11-01T01:27:35.840Z,0
2017-11-01T01:28:37.370Z,0
2017-11-01T01:29:38.863Z,0
2017-11-01T01:30:40.324Z,0
2017-11-01T01:31:41.804Z,0
2017-11-01T01:32:43.276Z,0
2017-11-01T01:33:44.771Z,0
2017-11-01T01:34:46.249Z,0
2017-11-01T01:35:47.763Z,0
2017-11-01T01:36:49.238Z,0
2017-11-01T01:37:50.747Z,0
2017-11-01T01:38:52.247Z,0
2017-11-01T01:39:53.726Z,0
2017-11-01T01:40:55.241Z,0
2017-11-01T01:41:56.689Z,0
2017-11-01T01:42:58.183Z,0
2017-11-01T01:43:59.666Z,0
2017-11-01T01:45:01.269Z,0
2017-11-01T01:46:02.769Z,0
2017-11-01T01:47:04.271Z,0
2017-11-01T01:48:05.739Z,0
2017-11-01T01:49:07.326Z,0
2017-11-01T01:50:08.836Z,0
2017-11-01T01:51:10.314Z,0
2017-11-01T01:52:11.817Z,0
2017-11-01T01:53:13.325Z,0
2017-11-01T01:54:14.814Z,0
2017-11-01T01:55:16.397Z,0
2017-11-01T01:56:17.904Z,0
2017-11-01T01:57:19.424Z,0
2017-11-01T01:58:20.915Z,0
2017-11-01T01:59:22.496Z,0
2017-11-01T02:00:24.032Z,0
2017-11-01T02:01:25.525Z,0
2017-11-01T02:02:27.015Z,0
2017-11-01T02:03:28.550Z,0
2017-11-01T02:04:30.054Z,0
2017-11-01T02:05:32.567Z,0
2017-11-01T02:06:34.098Z,0
2017-11-01T02:07:35.558Z,0
2017-11-01T02:08:37.084Z,0
2017-11-01T02:09:38.555Z,0
2017-11-01T02:10:40.082Z,0
2017-11-01T02:11:41.576Z,0
2017-11-01T02:12:43.067Z,0
2017-11-01T02:13:44.551Z,0
2017-11-01T02:14:46.317Z,0
2017-11-01T02:15:47.851Z,0
2017-11-01T02:16:49.362Z,0
2017-11-01T02:17:50.876Z,0
2017-11-01T02:18:52.342Z,0
2017-11-01T02:19:53.821Z,0
2017-11-01T02:20:55.346Z,0
2017-11-01T02:21:56.849Z,0
2017-11-01T02:22:58.352Z,0
2017-11-01T02:23:59.890Z,0
2017-11-01T02:25:01.416Z,0
2017-11-01T02:26:02.911Z,0
2017-11-01T02:27:04.459Z,0
2017-11-01T02:28:05.918Z,0
2017-11-01T02:29:07.440Z,0
2017-11-01T02:30:08.898Z,0
2017-11-01T02:31:10.478Z,0
2017-11-01T02:32:12.018Z,0
2017-11-01T02:33:13.514Z,0
2017-11-01T02:34:15.045Z,0
2017-11-01T02:35:16.534Z,0
2017-11-01T02:36:18.085Z,0
2017-11-01T02:37:19.628Z,0
2017-11-01T02:38:21.109Z,0
2017-11-01T02:39:22.604Z,0
2017-11-01T02:40:24.102Z,0
2017-11-01T02:41:25.591Z,0
2017-11-01T02:42:27.086Z,0
2017-11-01T02:43:28.540Z,0
2017-11-01T02:44:30.046Z,0
2017-11-01T02:45:31.559Z,0
2017-11-01T02:46:34.082Z,0
2017-11-01T02:47:35.530Z,0
2017-11-01T02:48:37.025Z,0
2017-11-01T02:49:38.488Z,0
2017-11-01T02:50:39.991Z,0
2017-11-01T02:51:41.489Z,0
2017-11-01T02:52:43.050Z,0
2017-11-01T02:53:44.581Z,0
2017-11-01T02:54:46.040Z,0
2017-11-01T02:55:47.518Z,0
2017-11-01T02:56:50.020Z,0
2017-11-01T02:57:51.495Z,0
2017-11-01T02:58:53.004Z,0
2017-11-01T02:59:54.456Z,0
2017-11-01T03:00:55.975Z,0
2017-11-01T03:01:57.505Z,0
2017-11-01T03:02:58.990Z,0
2017-11-01T03:04:00.492Z,0
2017-11-01T03:05:01.970Z,0
2017-11-01T03:06:03.458Z,0
2017-11-01T03:07:05.924Z,0
2017-11-01T03:08:07.481Z,0
2017-11-01T03:09:08.954Z,0
2017-11-01T03:10:10.500Z,0
2017-11-01T03:11:11.990Z,0
2017-11-01T03:12:13.457Z,0
2017-11-01T03:13:14.951Z,0
2017-11-01T03:14:16.537Z,0
2017-11-01T03:15:18.026Z,0
2017-11-01T03:16:19.510Z,0
2017-11-01T03:17:21.033Z,0
2017-11-01T03:18:22.596Z,0
2017-11-01T03:19:24.086Z,0
2017-11-01T03:20:25.705Z,0
2017-11-01T03:21:27.218Z,0
2017-11-01T03:22:28.719Z,0
2017-11-01T03:23:30.196Z,0
2017-11-01T03:24:31.713Z,0
2017-11-01T03:25:33.254Z,0
2017-11-01T03:26:34.745Z,0
2017-11-01T03:27:36.245Z,0
2017-11-01T03:28:37.714Z,0
2017-11-01T03:29:39.222Z,0
2017-11-01T03:30:40.702Z,0
2017-11-01T03:31:42.161Z,0
2017-11-01T03:32:43.688Z,0
2017-11-01T03:33:45.117Z,0
2017-11-01T03:34:46.584Z,0
2017-11-01T03:35:49.081Z,0
2017-11-01T03:36:50.578Z,0
2017-11-01T03:37:52.043Z,0
2017-11-01T03:38:53.505Z,0
2017-11-01T03:39:54.996Z,0
2017-11-01T03:40:56.466Z,0
2017-11-01T03:41:57.930Z,0
2017-11-01T03:42:59.395Z,0
2017-11-01T03:44:00.854Z,0
2017-11-01T03:45:02.329Z,0
2017-11-01T03:46:03.829Z,0
2017-11-01T03:47:05.239Z,0
2017-11-01T03:48:06.729Z,0
2017-11-01T03:49:08.228Z,0
2017-11-01T03:50:09.691Z,0
2017-11-01T03:51:11.180Z,0
2017-11-01T03:52:12.665Z,0
2017-11-01T03:53:14.144Z,0
2017-11-01T03:54:15.636Z,0
2017-11-01T03:55:17.091Z,0
2017-11-01T03:56:18.576Z,0
2017-11-01T03:57:20.079Z,0
2017-11-01T03:58:21.567Z,0
2017-11-01T03:59:23.058Z,0
2017-11-01T04:00:24.523Z,0
2017-11-01T04:01:25.998Z,0
2017-11-01T04:02:27.474Z,0
2017-11-01T04:03:28.965Z,0
2017-11-01T04:04:30.439Z,0
2017-11-01T04:05:31.965Z,0
2017-11-01T04:06:33.430Z,0
2017-11-01T04:07:34.895Z,0
2017-11-01T04:08:36.382Z,0
2017-11-01T04:09:37.883Z,0
2017-11-01T04:10:39.364Z,0
2017-11-01T04:11:40.889Z,0
2017-11-01T04:12:42.387Z,0
2017-11-01T04:13:43.848Z,0
2017-11-01T04:14:45.297Z,0
2017-11-01T04:15:46.815Z,0
2017-11-01T04:16:48.398Z,0
2017-11-01T04:17:50.868Z,0
2017-11-01T04:18:52.348Z,0
2017-11-01T04:19:53.824Z,0
2017-11-01T04:20:55.309Z,0
2017-11-01T04:21:56.799Z,0
2017-11-01T04:22:58.263Z,0
2017-11-01T04:23:59.717Z,0
2017-11-01T04:25:01.241Z,0
2017-11-01T04:26:02.744Z,0
2017-11-01T04:27:04.299Z,0
2017-11-01T04:28:05.755Z,0
2017-11-01T04:29:07.239Z,0
2017-11-01T04:30:08.737Z,0
2017-11-01T04:31:10.210Z,0
2017-11-01T04:32:11.731Z,0
2017-11-01T04:33:13.257Z,0
2017-11-01T04:34:14.721Z,0
2017-11-01T04:35:16.499Z,0
2017-11-01T04:36:18.070Z,0
2017-11-01T04:37:19.564Z,0
2017-11-01T04:38:22.144Z,0
2017-11-01T04:39:23.721Z,0
2017-11-01T04:40:25.294Z,0
2017-11-01T04:41:26.826Z,0
2017-11-01T04:42:28.478Z,0
2017-11-01T04:43:29.972Z,0
2017-11-01T04:44:31.520Z,0
2017-11-01T04:45:33.022Z,0
2017-11-01T04:46:34.632Z,0
2017-11-01T04:47:36.092Z,0
2017-11-01T04:48:37.648Z,0
2017-11-01T04:49:39.186Z,0
2017-11-01T04:50:40.823Z,0
2017-11-01T04:51:42.349Z,0
2017-11-01T04:52:43.895Z,0
2017-11-01T04:53:45.433Z,0
2017-11-01T04:54:46.914Z,0
2017-11-01T04:55:48.466Z,0
2017-11-01T04:56:50.034Z,0
2017-11-01T04:57:51.597Z,0
2017-11-01T04:58:53.151Z,0
2017-11-01T04:59:54.710Z,0
2017-11-01T05:00:56.178Z,0
2017-11-01T05:01:57.886Z,0
2017-11-01T05:02:59.369Z,0
2017-11-01T05:04:00.861Z,0
2017-11-01T05:05:02.364Z,0
2017-11-01T05:06:03.886Z,0
2017-11-01T05:07:05.409Z,0
2017-11-01T05:08:06.920Z,0
2017-11-01T05:09:08.493Z,0
2017-11-01T05:10:10.000Z,0
2017-11-01T05:11:11.577Z,0
2017-11-01T05:12:13.070Z,0
2017-11-01T05:13:14.664Z,0
2017-11-01T05:14:16.187Z,0
2017-11-01T05:15:17.689Z,0
2017-11-01T05:16:19.202Z,0
2017-11-01T05:17:20.675Z,0
2017-11-01T05:18:22.184Z,0
2017-11-01T05:19:24.677Z,0
2017-11-01T05:20:26.197Z,0
2017-11-01T05:21:27.692Z,0
2017-11-01T05:22:29.146Z,0
2017-11-01T05:23:30.622Z,0
2017-11-01T05:24:32.107Z,0
2017-11-01T05:25:33.656Z,0
2017-11-01T05:26:35.148Z,0
2017-11-01T05:27:36.769Z,0
2017-11-01T05:28:38.211Z,0
2017-11-01T05:29:39.721Z,0
2017-11-01T05:30:41.240Z,0
2017-11-01T05:31:42.720Z,0
2017-11-01T05:32:44.151Z,0
2017-11-01T05:33:45.726Z,0
2017-11-01T05:34:47.214Z,0
2017-11-01T05:35:48.693Z,0
2017-11-01T05:36:50.167Z,0
2017-11-01T05:37:51.660Z,0
2017-11-01T05:38:53.135Z,0
2017-11-01T05:39:54.609Z,0
2017-11-01T05:40:56.096Z,4
2017-11-01T05:41:57.618Z,4
2017-11-01T05:42:59.069Z,0
2017-11-01T05:44:00.564Z,4
2017-11-01T05:45:02.060Z,4
2017-11-01T05:46:03.582Z,8
2017-11-01T05:47:05.048Z,8
2017-11-01T05:48:06.762Z,8
2017-11-01T05:49:08.237Z,12
2017-11-01T05:50:09.807Z,12
2017-11-01T05:51:11.327Z,16
2017-11-01T05:52:12.819Z,16
2017-11-01T05:53:14.286Z,20
2017-11-01T05:54:15.788Z,24
2017-11-01T05:55:17.271Z,28
2017-11-01T05:56:18.820Z,36
2017-11-01T05:57:20.317Z,44
2017-11-01T05:58:21.828Z,52
2017-11-01T05:59:23.344Z,60
2017-11-01T06:00:24.919Z,68
2017-11-01T06:01:26.416Z,80
2017-11-01T06:02:27.891Z,92
2017-11-01T06:03:29.379Z,104
2017-11-01T06:04:30.901Z,116
2017-11-01T06:05:32.410Z,132
2017-11-01T06:06:33.944Z,148
2017-11-01T06:07:35.463Z,168
2017-11-01T06:08:37.020Z,184
2017-11-01T06:09:38.496Z,208
2017-11-01T06:10:39.997Z,236
2017-11-01T06:11:41.473Z,272
2017-11-01T06:12:42.937Z,308
2017-11-01T06:13:44.423Z,348
2017-11-01T06:14:45.901Z,392
2017-11-01T06:15:47.391Z,444
2017-11-01T06:16:48.853Z,500
2017-11-01T06:17:50.351Z,556
2017-11-01T06:18:51.846Z,612
2017-11-01T06:19:53.392Z,672
2017-11-01T06:20:54.856Z,740
2017-11-01T06:21:56.381Z,808
2017-11-01T06:22:57.914Z,888
2017-11-01T06:23:59.399Z,972
2017-11-01T06:25:00.951Z,1056
2017-11-01T06:26:02.518Z,1140
2017-11-01T06:27:04.085Z,1224
2017-11-01T06:28:05.592Z,1292
2017-11-01T06:29:07.093Z,1348
2017-11-01T06:30:08.664Z,1412
2017-11-01T06:31:10.171Z,1460
2017-11-01T06:32:11.677Z,1500
2017-11-01T06:33:13.951Z,1556
2017-11-01T06:34:15.509Z,1620
2017-11-01T06:35:17.011Z,1672
2017-11-01T06:36:18.457Z,1676
2017-11-01T06:37:19.952Z,1664
2017-11-01T06:38:21.427Z,1656
2017-11-01T06:39:22.968Z,1660
2017-11-01T06:40:25.049Z,1696
2017-11-01T06:41:25.891Z,1768
2017-11-01T06:42:27.367Z,1876
2017-11-01T06:43:28.849Z,2000
2017-11-01T06:44:30.945Z,2088
2017-11-01T06:45:32.451Z,2140
2017-11-01T06:46:34.763Z,2184
2017-11-01T06:47:36.247Z,2244
2017-11-01T06:48:38.467Z,2316
2017-11-01T06:49:39.941Z,2408
2017-11-01T06:50:41.414Z,2520
2017-11-01T06:51:42.852Z,2664
2017-11-01T06:52:44.339Z,2860
2017-11-01T06:53:46.460Z,3056
2017-11-01T06:54:47.982Z,3240
2017-11-01T06:55:50.248Z,3408
2017-11-01T06:56:51.732Z,3508
2017-11-01T06:57:53.843Z,3516
2017-11-01T06:58:55.328Z,3448
2017-11-01T06:59:56.815Z,3340
2017-11-01T07:00:58.285Z,3240
2017-11-01T07:01:59.801Z,3184
2017-11-01T07:03:01.276Z,3148
2017-11-01T07:04:03.799Z,3180
2017-11-01T07:05:05.277Z,3260
2017-11-01T07:06:07.639Z,3296
2017-11-01T07:07:09.121Z,3272
2017-11-01T07:08:10.583Z,3272
2017-11-01T07:09:12.083Z,3408
2017-11-01T07:10:13.544Z,3672
2017-11-01T07:11:15.041Z,3912
2017-11-01T07:12:16.547Z,4012
2017-11-01T07:13:18.860Z,3992
2017-11-01T07:14:20.341Z,3924
2017-11-01T07:15:21.803Z,3860
2017-11-01T07:16:24.001Z,3792
2017-11-01T07:17:25.500Z,3640
2017-11-01T07:18:27.849Z,3452
2017-11-01T07:19:29.353Z,3304
2017-11-01T07:20:30.832Z,3220
2017-11-01T07:21:32.377Z,3236
2017-11-01T07:22:33.901Z,3404
2017-11-01T07:23:35.357Z,3652
2017-11-01T07:24:37.823Z,3928
2017-11-01T07:25:39.266Z,4164
2017-11-01T07:26:40.763Z,4292
2017-11-01T07:27:42.235Z,4332
2017-11-01T07:28:43.793Z,4368
2017-11-01T07:29:45.307Z,4424
2017-11-01T07:30:46.769Z,4512
2017-11-01T07:31:48.281Z,4672
2017-11-01T07:32:49.748Z,4908
2017-11-01T07:33:51.199Z,5156
2017-11-01T07:34:52.781Z,5340
2017-11-01T07:35:54.291Z,5456
2017-11-01T07:36:55.916Z,5536
2017-11-01T07:37:57.425Z,5640
2017-11-01T07:38:58.932Z,5752
2017-11-01T07:40:00.423Z,5884
2017-11-01T07:41:01.950Z,6040
2017-11-01T07:42:03.435Z,6192
2017-11-01T07:43:04.921Z,6212
2017-11-01T07:44:06.477Z,6040
2017-11-01T07:45:08.008Z,5748
2017-11-01T07:46:09.516Z,5444
2017-11-01T07:47:11.063Z,5264
2017-11-01T07:48:12.585Z,5244
2017-11-01T07:49:14.037Z,5352
2017-11-01T07:50:15.584Z,5568
2017-11-01T07:51:17.099Z,5864
2017-11-01T07:52:18.633Z,6172
2017-11-01T07:53:20.118Z,6384
2017-11-01T07:54:21.615Z,6444
2017-11-01T07:55:23.090Z,6448
2017-11-01T07:56:24.583Z,6484
2017-11-01T07:57:26.072Z,6488
2017-11-01T07:58:27.638Z,6464
2017-11-01T07:59:29.107Z,6444
2017-11-01T08:00:30.641Z,6472
2017-11-01T08:01:32.249Z,6548
2017-11-01T08:02:35.568Z,6688
2017-11-01T08:03:36.558Z,6920
2017-11-01T08:04:38.114Z,7204
2017-11-01T08:05:39.610Z,7436
2017-11-01T08:06:41.157Z,7612
2017-11-01T08:07:42.649Z,7816
2017-11-01T08:08:44.168Z,8024
2017-11-01T08:09:45.643Z,8212
2017-11-01T08:10:47.153Z,8452
2017-11-01T08:11:48.675Z,8736
2017-11-01T08:12:50.205Z,9000
2017-11-01T08:13:51.718Z,9176
2017-11-01T08:14:53.227Z,9272
2017-11-01T08:15:54.726Z,9368
2017-11-01T08:16:57.210Z,9432
2017-11-01T08:17:58.740Z,9316
2017-11-01T08:19:00.203Z,9032
2017-11-01T08:20:01.729Z,8904
2017-11-01T08:21:03.313Z,9052
2017-11-01T08:22:04.877Z,9352
2017-11-01T08:23:06.392Z,9664
2017-11-01T08:24:07.942Z,9924
2017-11-01T08:25:09.441Z,10104
2017-11-01T08:26:10.949Z,10268
2017-11-01T08:27:13.470Z,10612
2017-11-01T08:28:15.090Z,11216
2017-11-01T08:29:17.669Z,12068
2017-11-01T08:30:19.252Z,12748
2017-11-01T08:31:20.851Z,12760
2017-11-01T08:32:22.388Z,12396
2017-11-01T08:33:24.881Z,12040
2017-11-01T08:34:26.415Z,11760
2017-11-01T08:35:27.939Z,11764
2017-11-01T08:36:29.472Z,11960
2017-11-01T08:37:30.981Z,12284
2017-11-01T08:38:32.624Z,12696
2017-11-01T08:39:34.118Z,13148
2017-11-01T08:40:35.583Z,13716
2017-11-01T08:41:37.096Z,14164
2017-11-01T08:42:38.638Z,14108
2017-11-01T08:43:40.216Z,13924
2017-11-01T08:44:41.729Z,13976
2017-11-01T08:45:43.258Z,14064
2017-11-01T08:46:44.783Z,13760
2017-11-01T08:47:46.380Z,13316
2017-11-01T08:48:47.914Z,12944
2017-11-01T08:49:49.502Z,12784
2017-11-01T08:50:51.077Z,13036
2017-11-01T08:51:52.568Z,13628
2017-11-01T08:52:54.199Z,14500
2017-11-01T08:53:55.804Z,15276
2017-11-01T08:54:57.352Z,15984
2017-11-01T08:55:58.990Z,16384
2017-11-01T08:57:00.643Z,15300
2017-11-01T08:58:02.268Z,13380
2017-11-01T08:59:03.823Z,11756
2017-11-01T09:00:05.507Z,10568
2017-11-01T09:01:07.122Z,10048
2017-11-01T09:02:08.821Z,9608
2017-11-01T09:03:10.336Z,9620
2017-11-01T09:04:11.869Z,9888
2017-11-01T09:05:13.422Z,9712
2017-11-01T09:06:16.043Z,9908
2017-11-01T09:07:17.651Z,12164
2017-11-01T09:08:19.176Z,14408
2017-11-01T09:09:20.708Z,14792
2017-11-01T09:10:22.222Z,14888
2017-11-01T09:11:24.337Z,14784
2017-11-01T09:12:25.906Z,14860
2017-11-01T09:13:27.419Z,15032
2017-11-01T09:14:29.182Z,15252
2017-11-01T09:15:30.781Z,15620
2017-11-01T09:16:32.948Z,15848
2017-11-01T09:17:34.868Z,16128
2017-11-01T09:18:36.404Z,16752
2017-11-01T09:19:38.316Z,17976
2017-11-01T09:20:39.996Z,19616
2017-11-01T09:21:41.698Z,21600
2017-11-01T09:22:43.418Z,23936
2017-11-01T09:23:45.441Z,25920
2017-11-01T09:24:47.376Z,28160
2017-11-01T09:25:49.007Z,31808
2017-11-01T09:26:51.746Z,37120
2017-11-01T09:27:53.514Z,42912
2017-11-01T09:28:55.307Z,46944
2017-11-01T09:29:57.221Z,42752
2017-11-01T09:30:59.153Z,33248
2017-11-01T09:32:00.906Z,27136
2017-11-01T09:33:02.832Z,25088
2017-11-01T09:34:04.623Z,24256
2017-11-01T09:35:06.529Z,23104
2017-11-01T09:36:08.362Z,22464
2017-11-01T09:37:10.069Z,23264
2017-11-01T09:38:11.776Z,25088
2017-11-01T09:39:13.520Z,27616
2017-11-01T09:40:15.366Z,32000
2017-11-01T09:41:17.297Z,35072
2017-11-01T09:42:19.072Z,36544
2017-11-01T09:43:20.793Z,37344
2017-11-01T09:44:22.844Z,38112
2017-11-01T09:45:24.612Z,38816
2017-11-01T09:46:26.299Z,38816
2017-11-01T09:47:27.993Z,40320
2017-11-01T09:48:29.888Z,40512
2017-11-01T09:49:32.063Z,40448
2017-11-01T09:50:34.127Z,39968
2017-11-01T09:51:36.352Z,40704
2017-11-01T09:52:38.202Z,40544
2017-11-01T09:53:40.124Z,41024
2017-11-01T09:54:42.096Z,42368
2017-11-01T09:55:44.080Z,42880
2017-11-01T09:56:45.835Z,43264
2017-11-01T09:57:47.844Z,43584
2017-11-01T09:58:49.748Z,45248
2017-11-01T09:59:51.517Z,44864
2017-11-01T10:00:53.760Z,44096
2017-11-01T10:01:55.580Z,43328
2017-11-01T10:02:57.363Z,43648
2017-11-01T10:04:00.320Z,42848
2017-11-01T10:05:02.010Z,43200
2017-11-01T10:06:04.584Z,43136
2017-11-01T10:07:06.445Z,43136
2017-11-01T10:08:08.055Z,43136
2017-11-01T10:09:09.840Z,43392
2017-11-01T10:10:12.013Z,42208
2017-11-01T10:11:13.806Z,41792
2017-11-01T10:12:16.821Z,42464
2017-11-01T10:13:18.609Z,43264
2017-11-01T10:14:20.345Z,43872
2017-11-01T10:15:21.990Z,46112
2017-11-01T10:16:23.792Z,44256
2017-11-01T10:17:25.493Z,42432
2017-11-01T10:18:27.246Z,45376
2017-11-01T10:19:28.949Z,42880
2017-11-01T10:20:30.732Z,41600
2017-11-01T10:21:32.450Z,41888
2017-11-01T10:22:34.236Z,41536
2017-11-01T10:23:36.130Z,42400
2017-11-01T10:24:37.850Z,44000
2017-11-01T10:25:39.442Z,45024
2017-11-01T10:26:41.089Z,44256
2017-11-01T10:27:42.658Z,43200
2017-11-01T10:28:44.587Z,43744
2017-11-01T10:29:46.533Z,44832
2017-11-01T10:30:49.385Z,41472
2017-11-01T10:31:51.439Z,38048
2017-11-01T10:32:54.506Z,38912
2017-11-01T10:33:56.412Z,37504
2017-11-01T10:34:58.271Z,38272
2017-11-01T10:35:59.952Z,39936
2017-11-01T10:37:01.744Z,39904
2017-11-01T10:38:03.563Z,42048
2017-11-01T10:39:05.223Z,42816
2017-11-01T10:40:07.044Z,43232
2017-11-01T10:41:09.853Z,44288
2017-11-01T10:42:11.345Z,44672
2017-11-01T10:43:12.956Z,40352
2017-11-01T10:44:14.898Z,41344
2017-11-01T10:45:17.004Z,47008
2017-11-01T10:46:19.091Z,47808
2017-11-01T10:47:20.760Z,47776
2017-11-01T10:48:22.331Z,48096
2017-11-01T10:49:23.956Z,47904
2017-11-01T10:50:25.483Z,47424
2017-11-01T10:51:27.126Z,48512
2017-11-01T10:52:28.677Z,50400
2017-11-01T10:53:30.334Z,50240
2017-11-01T10:54:32.028Z,48064
2017-11-01T10:55:33.644Z,48352
2017-11-01T10:56:35.174Z,50208
2017-11-01T10:57:37.745Z,50016
2017-11-01T10:58:39.226Z,50208
2017-11-01T10:59:40.763Z,49504
2017-11-01T11:00:42.528Z,49184
2017-11-01T11:01:44.259Z,48800
2017-11-01T11:02:45.822Z,49504
2017-11-01T11:03:47.582Z,49600
2017-11-01T11:04:49.149Z,48448
2017-11-01T11:05:50.898Z,48000
2017-11-01T11:06:52.447Z,49024
2017-11-01T11:07:54.056Z,49440
2017-11-01T11:08:55.591Z,49600
2017-11-01T11:09:57.199Z,49472
2017-11-01T11:10:58.722Z,48864
2017-11-01T11:12:01.109Z,47616
2017-11-01T11:13:02.842Z,48704
2017-11-01T11:14:04.428Z,50112
2017-11-01T11:15:05.904Z,51424
2017-11-01T11:16:07.454Z,52128
2017-11-01T11:17:09.091Z,51168
2017-11-01T11:18:10.685Z,50816
2017-11-01T11:19:12.201Z,50848
2017-11-01T11:20:13.864Z,50912
2017-11-01T11:21:15.516Z,50848
2017-11-01T11:22:17.148Z,50464
2017-11-01T11:23:18.663Z,51072
2017-11-01T11:24:20.227Z,51904
2017-11-01T11:25:21.802Z,52256
2017-11-01T11:26:23.363Z,52704
2017-11-01T11:27:24.924Z,52832
2017-11-01T11:28:27.550Z,52608
2017-11-01T11:29:29.094Z,51392
2017-11-01T11:30:32.036Z,51648
2017-11-01T11:31:33.615Z,52160
2017-11-01T11:32:36.129Z,52544
2017-11-01T11:33:37.656Z,52512
2017-11-01T11:34:39.156Z,51808
2017-11-01T11:35:40.699Z,50368
2017-11-01T11:36:42.321Z,50368
2017-11-01T11:37:45.169Z,50112
2017-11-01T11:38:46.662Z,49408
2017-11-01T11:39:48.250Z,49024
2017-11-01T11:40:50.263Z,48544
2017-11-01T11:41:51.871Z,49504
2017-11-01T11:42:53.403Z,50400
2017-11-01T11:43:55.089Z,48864
2017-11-01T11:44:57.565Z,46368
2017-11-01T11:46:00.024Z,45952
2017-11-01T11:47:01.582Z,47904
2017-11-01T11:48:03.129Z,48256
2017-11-01T11:49:04.718Z,48416
2017-11-01T11:50:06.284Z,48096
2017-11-01T11:51:07.872Z,47616
2017-11-01T11:52:09.430Z,47360
2017-11-01T11:53:10.959Z,47328
2017-11-01T11:54:12.467Z,47264
2017-11-01T11:55:14.013Z,46560
2017-11-01T11:56:15.557Z,45568
2017-11-01T11:57:17.088Z,45920
2017-11-01T11:58:18.615Z,46336
2017-11-01T11:59:20.154Z,46432
2017-11-01T12:00:21.723Z,45248
2017-11-01T12:01:23.240Z,42048
2017-11-01T12:02:24.784Z,39232
2017-11-01T12:03:26.396Z,40096
2017-11-01T12:04:27.899Z,38880
2017-11-01T12:05:29.450Z,42176
2017-11-01T12:06:31.015Z,44064
2017-11-01T12:07:32.514Z,45280
2017-11-01T12:08:34.059Z,45568
2017-11-01T12:09:35.616Z,44960
2017-11-01T12:10:37.378Z,44640
2017-11-01T12:11:38.910Z,43872
2017-11-01T12:12:40.483Z,41600
2017-11-01T12:13:42.062Z,43648
2017-11-01T12:14:43.648Z,42272
2017-11-01T12:15:45.200Z,39904
2017-11-01T12:16:46.727Z,41280
2017-11-01T12:17:48.288Z,44864
2017-11-01T12:18:50.091Z,45536
2017-11-01T12:19:51.649Z,44192
2017-11-01T12:20:53.207Z,43808
2017-11-01T12:21:54.740Z,44384
2017-11-01T12:22:57.303Z,44224
2017-11-01T12:23:58.927Z,42496
2017-11-01T12:25:00.453Z,40800
2017-11-01T12:26:01.961Z,41344
2017-11-01T12:27:03.504Z,41856
2017-11-01T12:28:05.043Z,41152
2017-11-01T12:29:06.617Z,41152
2017-11-01T12:30:08.241Z,42208
2017-11-01T12:31:09.926Z,42336
2017-11-01T12:32:11.666Z,42048
2017-11-01T12:33:13.287Z,42240
2017-11-01T12:34:14.925Z,42368
2017-11-01T12:35:16.538Z,42144
2017-11-01T12:36:18.382Z,41568
2017-11-01T12:37:21.050Z,41888
2017-11-01T12:38:22.631Z,42176
2017-11-01T12:39:24.157Z,42464
2017-11-01T12:40:25.712Z,42400
2017-11-01T12:41:27.235Z,43264
2017-11-01T12:42:28.824Z,42720
2017-11-01T12:43:30.405Z,42080
2017-11-01T12:44:31.970Z,40736
2017-11-01T12:45:34.592Z,41440
2017-11-01T12:46:36.077Z,42016
2017-11-01T12:47:37.687Z,42816
2017-11-01T12:48:39.231Z,42304
2017-11-01T12:49:40.952Z,41824
2017-11-01T12:50:42.504Z,41856
2017-11-01T12:51:44.076Z,41856
2017-11-01T12:52:45.677Z,42336
2017-11-01T12:53:47.258Z,43168
2017-11-01T12:54:48.808Z,42848
2017-11-01T12:55:50.425Z,42528
2017-11-01T12:56:51.973Z,42176
2017-11-01T12:57:53.866Z,42400
2017-11-01T12:58:55.680Z,42944
2017-11-01T12:59:57.378Z,42048
2017-11-01T13:00:59.527Z,39712
2017-11-01T13:02:01.212Z,38688
2017-11-01T13:03:02.860Z,40160
2017-11-01T13:04:04.422Z,40704
2017-11-01T13:05:06.007Z,39424
2017-11-01T13:06:07.975Z,38016
2017-11-01T13:07:10.563Z,36384
2017-11-01T13:08:12.210Z,34880
2017-11-01T13:09:13.739Z,33792
2017-11-01T13:10:15.335Z,33088
2017-11-01T13:11:16.860Z,32928
2017-11-01T13:12:18.678Z,32768
2017-11-01T13:13:20.254Z,32768
2017-11-01T13:14:22.211Z,31232
2017-11-01T13:15:23.773Z,29184
2017-11-01T13:16:25.404Z,26656
2017-11-01T13:17:26.966Z,24864
2017-11-01T13:18:28.562Z,22080
2017-11-01T13:19:30.195Z,15924
2017-11-01T13:20:31.775Z,12348
2017-11-01T13:21:33.320Z,15136
2017-11-01T13:22:35.025Z,15324
2017-11-01T13:23:36.504Z,12200
2017-11-01T13:24:38.230Z,11620
2017-11-01T13:25:39.779Z,11552
2017-11-01T13:26:41.345Z,11044
2017-11-01T13:27:43.072Z,9600
2017-11-01T13:28:44.582Z,8444
2017-11-01T13:29:48.052Z,8448
2017-11-01T13:30:49.592Z,8084
2017-11-01T13:31:51.335Z,7824
2017-11-01T13:32:52.824Z,7680
2017-11-01T13:33:54.432Z,7532
2017-11-01T13:34:56.027Z,8008
2017-11-01T13:35:57.541Z,8452
2017-11-01T13:36:59.308Z,9540
2017-11-01T13:38:00.820Z,13788
2017-11-01T13:39:02.615Z,18176
2017-11-01T13:40:05.155Z,13256
2017-11-01T13:41:06.685Z,11880
2017-11-01T13:42:08.325Z,11036
2017-11-01T13:43:09.908Z,10464
2017-11-01T13:44:11.597Z,10876
2017-11-01T13:45:13.227Z,12084
2017-11-01T13:46:14.956Z,14176
2017-11-01T13:47:16.601Z,14876
2017-11-01T13:48:18.292Z,16176
2017-11-01T13:49:19.817Z,16264
2017-11-01T13:50:21.698Z,14604
2017-11-01T13:51:23.809Z,12748
2017-11-01T13:52:25.428Z,12504
2017-11-01T13:53:28.367Z,11104
2017-11-01T13:54:29.863Z,9964
2017-11-01T13:55:32.663Z,8876
2017-11-01T13:56:34.397Z,8676
2017-11-01T13:57:36.127Z,8736
2017-11-01T13:58:37.890Z,9388
2017-11-01T13:59:39.604Z,8756
2017-11-01T14:00:41.225Z,7740
2017-11-01T14:01:44.714Z,6968
2017-11-01T14:02:46.288Z,6984
2017-11-01T14:03:48.077Z,7084
2017-11-01T14:04:49.642Z,7516
2017-11-01T14:05:53.199Z,7788